createdAt,value
2019-02-03T00:00:34.207Z,48.97
2019-02-03T00:01:42.087Z,49.17
2019-02-03T00:02:46.522Z,49.73
2019-02-03T00:03:51.252Z,51.33
2019-02-03T00:04:55.741Z,50.33
2019-02-03T00:06:00.167Z,52.20
2019-02-03T00:07:04.686Z,48.97
2019-02-03T00:08:09.139Z,50.17
2019-02-03T00:09:17.681Z,48.83
2019-02-03T00:10:22.165Z,49.40
2019-02-03T00:11:26.566Z,48.23
2019-02-03T00:12:30.996Z,50.87
2019-02-03T00:13:35.497Z,50.53
2019-02-03T00:14:39.972Z,49.90
2019-02-03T00:15:44.421Z,51.63
2019-02-03T00:16:48.915Z,49.37
2019-02-03T00:17:53.504Z,50.40
2019-02-03T00:18:58.314Z,49.40
2019-02-03T00:20:02.745Z,49.03
2019-02-03T00:21:07.100Z,47.77
2019-02-03T00:22:11.532Z,52.43
2019-02-03T00:23:15.899Z,48.40
2019-02-03T00:24:20.411Z,48.60
2019-02-03T00:25:24.782Z,47.90
2019-02-03T00:26:29.239Z,50.40
2019-02-03T00:27:33.794Z,50.33
2019-02-03T00:28:38.140Z,49.50
2019-02-03T00:29:42.594Z,50.37
2019-02-03T00:30:47.111Z,48.67
2019-02-03T00:31:51.634Z,48.43
2019-02-03T00:32:56.199Z,48.53
2019-02-03T00:34:00.583Z,46.53
2019-02-03T00:35:05.771Z,46.97
2019-02-03T00:36:10.425Z,49.57
2019-02-03T00:37:17.416Z,48.63
2019-02-03T00:38:24.400Z,45.67
2019-02-03T00:39:27.292Z,46.17
2019-02-03T00:40:31.979Z,46.97
2019-02-03T00:41:36.448Z,45.70
2019-02-03T00:42:40.978Z,45.67
2019-02-03T00:43:45.388Z,47.07
2019-02-03T00:44:49.873Z,45.83
2019-02-03T00:45:54.497Z,48.13
2019-02-03T00:46:58.926Z,45.17
2019-02-03T00:48:03.356Z,48.03
2019-02-03T00:49:07.865Z,44.70
2019-02-03T00:50:12.645Z,47.47
2019-02-03T00:51:17.063Z,45.40
2019-02-03T00:52:21.536Z,46.30
2019-02-03T00:53:26.037Z,44.80
2019-02-03T00:54:30.484Z,43.07
2019-02-03T00:55:35.009Z,44.13
2019-02-03T00:56:39.634Z,45.90
2019-02-03T00:57:44.015Z,44.57
2019-02-03T00:58:48.834Z,45.00
2019-02-03T00:59:53.699Z,45.77
2019-02-03T01:00:58.176Z,45.03
2019-02-03T01:02:02.623Z,46.10
2019-02-03T01:03:07.106Z,44.10
2019-02-03T01:04:11.572Z,45.57
2019-02-03T01:05:17.025Z,47.10
2019-02-03T01:06:23.762Z,46.03
2019-02-03T01:07:29.401Z,44.30
2019-02-03T01:08:34.001Z,47.60
2019-02-03T01:09:38.474Z,43.30
2019-02-03T01:10:42.889Z,44.47
2019-02-03T01:11:47.304Z,44.57
2019-02-03T01:12:51.733Z,47.20
2019-02-03T01:13:56.182Z,46.57
2019-02-03T01:15:00.657Z,45.47
2019-02-03T01:16:05.210Z,44.60
2019-02-03T01:17:09.727Z,45.77
2019-02-03T01:18:14.449Z,44.30
2019-02-03T01:19:20.526Z,45.47
2019-02-03T01:20:25.102Z,45.53
2019-02-03T01:21:29.486Z,45.90
2019-02-03T01:22:33.882Z,46.50
2019-02-03T01:23:38.487Z,46.07
2019-02-03T01:24:42.915Z,45.90
2019-02-03T01:25:47.322Z,45.73
2019-02-03T01:26:51.721Z,47.13
2019-02-03T01:27:56.297Z,43.53
2019-02-03T01:29:00.888Z,46.40
2019-02-03T01:30:06.863Z,45.03
2019-02-03T01:31:11.301Z,46.90
2019-02-03T01:32:16.123Z,46.80
2019-02-03T01:33:20.623Z,46.60
2019-02-03T01:34:25.041Z,45.60
2019-02-03T01:35:29.491Z,44.87
2019-02-03T01:36:34.044Z,45.20
2019-02-03T01:37:41.572Z,47.80
2019-02-03T01:38:46.462Z,44.83
2019-02-03T01:39:50.868Z,46.00
2019-02-03T01:40:55.372Z,47.27
2019-02-03T01:41:59.825Z,46.40
2019-02-03T01:43:04.355Z,46.33
2019-02-03T01:44:08.804Z,49.60
2019-02-03T01:45:17.924Z,44.43
2019-02-03T01:46:22.422Z,43.77
2019-02-03T01:47:26.927Z,47.17
2019-02-03T01:48:31.470Z,44.13
2019-02-03T01:49:35.959Z,43.80
2019-02-03T01:50:40.812Z,44.00
2019-02-03T01:51:45.230Z,45.53
2019-02-03T01:52:49.758Z,44.30
2019-02-03T01:53:54.773Z,45.80
2019-02-03T01:54:59.365Z,45.00
2019-02-03T01:56:03.765Z,42.77
2019-02-03T01:57:08.268Z,45.77
2019-02-03T01:58:12.734Z,43.37
2019-02-03T01:59:17.327Z,44.73
2019-02-03T02:00:23.973Z,45.77
2019-02-03T02:01:28.404Z,44.53
2019-02-03T02:02:32.901Z,44.97
2019-02-03T02:03:37.532Z,45.63
2019-02-03T02:04:41.893Z,43.93
2019-02-03T02:05:46.285Z,46.47
2019-02-03T02:06:53.013Z,45.20
2019-02-03T02:07:56.866Z,45.57
2019-02-03T02:09:01.474Z,44.00
2019-02-03T02:10:06.428Z,44.70
2019-02-03T02:11:10.994Z,44.67
2019-02-03T02:12:15.458Z,45.60
2019-02-03T02:13:19.886Z,44.87
2019-02-03T02:14:24.374Z,43.77
2019-02-03T02:15:28.874Z,44.07
2019-02-03T02:16:33.318Z,42.40
2019-02-03T02:17:37.840Z,44.77
2019-02-03T02:18:42.725Z,43.63
2019-02-03T02:19:47.403Z,43.03
2019-02-03T02:20:52.033Z,42.27
2019-02-03T02:21:56.576Z,44.00
2019-02-03T02:23:01.160Z,42.33
2019-02-03T02:24:05.694Z,42.93
2019-02-03T02:25:10.612Z,43.97
2019-02-03T02:26:15.152Z,42.17
2019-02-03T02:27:19.555Z,45.53
2019-02-03T02:28:24.244Z,45.90
2019-02-03T02:29:28.689Z,42.47
2019-02-03T02:30:33.089Z,42.67
2019-02-03T02:31:37.679Z,43.33
2019-02-03T02:32:42.111Z,44.03
2019-02-03T02:33:46.586Z,47.57
2019-02-03T02:34:51.137Z,45.53
2019-02-03T02:35:55.809Z,44.20
2019-02-03T02:37:00.625Z,45.37
2019-02-03T02:38:07.149Z,46.93
2019-02-03T02:39:11.732Z,46.90
2019-02-03T02:40:26.893Z,45.20
2019-02-03T02:41:31.697Z,44.73
2019-02-03T02:42:36.184Z,48.03
2019-02-03T02:43:40.588Z,45.37
2019-02-03T02:44:45.159Z,46.63
2019-02-03T02:45:49.722Z,46.13
2019-02-03T02:46:54.154Z,45.10
2019-02-03T02:47:58.926Z,47.23
2019-02-03T02:49:03.494Z,48.40
2019-02-03T02:50:10.540Z,46.60
2019-02-03T02:51:15.053Z,46.37
2019-02-03T02:52:19.545Z,46.80
2019-02-03T02:53:23.989Z,47.47
2019-02-03T02:54:28.507Z,45.23
2019-02-03T02:55:33.001Z,48.70
2019-02-03T02:56:37.668Z,48.47
2019-02-03T02:57:44.811Z,45.60
2019-02-03T02:58:49.466Z,47.40
2019-02-03T02:59:54.012Z,47.70
2019-02-03T03:00:59.185Z,46.43
2019-02-03T03:02:03.864Z,45.20
2019-02-03T03:03:08.306Z,45.90
2019-02-03T03:04:15.079Z,43.83
2019-02-03T03:05:19.615Z,45.30
2019-02-03T03:06:24.047Z,44.93
2019-02-03T03:07:28.603Z,44.40
2019-02-03T03:08:33.204Z,42.40
2019-02-03T03:09:37.668Z,44.23
2019-02-03T03:10:42.198Z,45.27
2019-02-03T03:11:46.622Z,43.10
2019-02-03T03:12:51.033Z,45.37
2019-02-03T03:13:55.603Z,43.67
2019-02-03T03:15:00.341Z,45.23
2019-02-03T03:16:05.209Z,43.30
2019-02-03T03:17:09.626Z,41.30
2019-02-03T03:18:14.175Z,44.33
2019-02-03T03:19:18.678Z,45.10
2019-02-03T03:20:23.387Z,44.57
2019-02-03T03:21:28.248Z,43.23
2019-02-03T03:22:32.658Z,43.50
2019-02-03T03:23:37.101Z,45.30
2019-02-03T03:24:41.701Z,43.67
2019-02-03T03:25:46.458Z,44.77
2019-02-03T03:26:51.037Z,43.30
2019-02-03T03:27:55.491Z,43.50
2019-02-03T03:29:00.005Z,42.93
2019-02-03T03:30:06.170Z,45.17
2019-02-03T03:31:10.997Z,43.10
2019-02-03T03:32:15.508Z,42.77
2019-02-03T03:33:19.991Z,41.50
2019-02-03T03:34:24.502Z,41.87
2019-02-03T03:35:28.887Z,39.67
2019-02-03T03:36:33.433Z,42.73
2019-02-03T03:37:37.863Z,39.47
2019-02-03T03:38:42.385Z,40.57
2019-02-03T03:39:47.189Z,40.20
2019-02-03T03:40:51.868Z,41.17
2019-02-03T03:41:56.460Z,41.43
2019-02-03T03:43:00.971Z,42.67
2019-02-03T03:44:05.513Z,40.57
2019-02-03T03:45:10.271Z,41.87
2019-02-03T03:46:14.901Z,41.87
2019-02-03T03:47:19.436Z,40.83
2019-02-03T03:48:23.841Z,39.40
2019-02-03T03:49:28.286Z,40.90
2019-02-03T03:50:32.839Z,39.07
2019-02-03T03:51:37.305Z,41.53
2019-02-03T03:52:41.728Z,41.07
2019-02-03T03:53:48.935Z,40.63
2019-02-03T03:54:53.359Z,37.57
2019-02-03T03:55:57.861Z,40.43
2019-02-03T03:57:02.484Z,40.37
2019-02-03T03:58:07.071Z,40.27
2019-02-03T03:59:11.770Z,40.63
2019-02-03T04:00:21.377Z,39.67
2019-02-03T04:01:26.163Z,42.13
2019-02-03T04:02:30.560Z,39.43
2019-02-03T04:03:34.995Z,41.93
2019-02-03T04:04:39.459Z,40.33
2019-02-03T04:05:45.680Z,37.50
2019-02-03T04:06:50.109Z,40.00
2019-02-03T04:07:54.636Z,41.40
2019-02-03T04:08:59.058Z,40.73
2019-02-03T04:10:03.693Z,41.17
2019-02-03T04:11:08.138Z,39.27
2019-02-03T04:12:12.592Z,40.10
2019-02-03T04:13:17.028Z,40.80
2019-02-03T04:14:21.528Z,41.07
2019-02-03T04:15:26.039Z,40.93
2019-02-03T04:16:30.486Z,42.60
2019-02-03T04:17:34.891Z,40.30
2019-02-03T04:18:39.467Z,42.60
2019-02-03T04:19:44.271Z,41.10
2019-02-03T04:20:49.152Z,42.90
2019-02-03T04:21:53.696Z,43.53
2019-02-03T04:22:58.622Z,41.27
2019-02-03T04:24:03.394Z,41.70
2019-02-03T04:25:07.901Z,45.47
2019-02-03T04:26:12.325Z,43.50
2019-02-03T04:27:16.933Z,44.23
2019-02-03T04:28:21.329Z,46.27
2019-02-03T04:29:25.792Z,41.80
2019-02-03T04:30:30.293Z,44.10
2019-02-03T04:31:34.723Z,46.33
2019-02-03T04:32:39.269Z,45.23
2019-02-03T04:33:43.810Z,43.30
2019-02-03T04:34:48.318Z,44.07
2019-02-03T04:35:52.803Z,42.63
2019-02-03T04:36:57.247Z,44.23
2019-02-03T04:38:01.778Z,44.43
2019-02-03T04:39:08.264Z,43.10
2019-02-03T04:40:15.232Z,44.77
2019-02-03T04:41:19.608Z,42.83
2019-02-03T04:42:24.076Z,41.53
2019-02-03T04:43:28.577Z,45.83
2019-02-03T04:44:33.087Z,43.87
2019-02-03T04:45:37.615Z,44.50
2019-02-03T04:46:42.090Z,45.37
2019-02-03T04:47:47.127Z,44.30
2019-02-03T04:48:51.629Z,41.93
2019-02-03T04:49:55.982Z,43.27
2019-02-03T04:51:00.416Z,44.73
2019-02-03T04:52:04.762Z,44.43
2019-02-03T04:53:09.182Z,44.53
2019-02-03T04:54:13.700Z,42.57
2019-02-03T04:55:19.192Z,45.07
2019-02-03T04:56:23.767Z,43.97
2019-02-03T04:57:28.191Z,42.30
2019-02-03T04:58:32.891Z,44.00
2019-02-03T04:59:37.658Z,44.73
2019-02-03T05:00:42.080Z,41.40
2019-02-03T05:01:46.826Z,42.60
2019-02-03T05:02:51.460Z,45.70
2019-02-03T05:03:55.920Z,42.90
2019-02-03T05:05:00.488Z,46.53
2019-02-03T05:06:04.863Z,45.87
2019-02-03T05:07:09.300Z,45.63
2019-02-03T05:08:13.854Z,42.53
2019-02-03T05:09:18.409Z,44.73
2019-02-03T05:10:23.005Z,45.50
2019-02-03T05:11:27.524Z,45.20
2019-02-03T05:12:32.060Z,47.40
2019-02-03T05:13:36.517Z,46.70
2019-02-03T05:14:40.933Z,47.60
2019-02-03T05:15:45.400Z,44.87
2019-02-03T05:16:49.928Z,44.80
2019-02-03T05:17:54.733Z,44.27
2019-02-03T05:18:59.273Z,45.73
2019-02-03T05:20:03.940Z,45.93
2019-02-03T05:21:08.405Z,47.20
2019-02-03T05:22:12.921Z,46.23
2019-02-03T05:23:17.336Z,44.30
2019-02-03T05:24:21.768Z,46.07
2019-02-03T05:25:26.205Z,44.20
2019-02-03T05:26:30.670Z,45.23
2019-02-03T05:27:35.150Z,44.83
2019-02-03T05:28:39.555Z,45.03
2019-02-03T05:29:43.923Z,46.43
2019-02-03T05:30:48.416Z,44.47
2019-02-03T05:31:52.825Z,44.30
2019-02-03T05:32:57.336Z,43.90
2019-02-03T05:34:02.115Z,41.63
2019-02-03T05:35:06.857Z,41.17
2019-02-03T05:36:11.701Z,43.90
2019-02-03T05:37:16.119Z,40.83
2019-02-03T05:38:20.771Z,42.27
2019-02-03T05:39:25.717Z,39.00
2019-02-03T05:40:30.270Z,40.00
2019-02-03T05:41:35.740Z,40.13
2019-02-03T05:42:40.188Z,41.97
2019-02-03T05:43:44.640Z,41.47
2019-02-03T05:44:49.029Z,40.60
2019-02-03T05:45:53.612Z,41.43
2019-02-03T05:46:58.171Z,39.90
2019-02-03T05:48:02.965Z,42.13
2019-02-03T05:49:07.441Z,40.27
2019-02-03T05:50:13.139Z,41.10
2019-02-03T05:51:17.589Z,38.80
2019-02-03T05:52:21.976Z,39.30
2019-02-03T05:53:26.405Z,39.17
2019-02-03T05:54:34.164Z,39.27
2019-02-03T05:55:38.732Z,39.70
2019-02-03T05:56:43.521Z,40.97
2019-02-03T05:57:50.727Z,38.50
2019-02-03T05:58:55.196Z,37.90
2019-02-03T05:59:59.742Z,38.77
2019-02-03T06:01:04.164Z,35.70
2019-02-03T06:02:10.142Z,36.67
2019-02-03T06:03:14.625Z,38.80
2019-02-03T06:04:19.020Z,38.57
2019-02-03T06:05:23.527Z,37.07
2019-02-03T06:06:28.827Z,37.93
2019-02-03T06:07:33.193Z,37.83
2019-02-03T06:08:37.610Z,37.10
2019-02-03T06:09:41.986Z,36.50
2019-02-03T06:10:46.609Z,33.80
2019-02-03T06:11:54.377Z,35.47
2019-02-03T06:12:58.956Z,35.60
2019-02-03T06:14:04.202Z,34.07
2019-02-03T06:15:08.844Z,36.33
2019-02-03T06:16:16.593Z,33.50
2019-02-03T06:17:21.241Z,33.87
2019-02-03T06:18:25.944Z,33.60
2019-02-03T06:19:32.454Z,34.10
2019-02-03T06:20:37.134Z,33.37
2019-02-03T06:21:41.630Z,32.47
2019-02-03T06:22:46.568Z,32.77
2019-02-03T06:23:53.499Z,33.43
2019-02-03T06:24:59.907Z,34.63
2019-02-03T06:26:04.511Z,33.83
2019-02-03T06:27:08.938Z,32.93
2019-02-03T06:28:13.602Z,32.77
2019-02-03T06:29:18.057Z,30.50
2019-02-03T06:31:18.981Z,33.77
2019-02-03T06:32:23.497Z,31.13
2019-02-03T06:33:28.041Z,31.93
2019-02-03T06:34:32.452Z,32.03
2019-02-03T06:35:36.873Z,33.00
2019-02-03T06:36:41.884Z,32.37
2019-02-03T06:37:46.414Z,32.40
2019-02-03T06:38:51.865Z,32.27
2019-02-03T06:39:58.976Z,33.07
2019-02-03T06:41:04.025Z,30.77
2019-02-03T06:42:08.596Z,32.67
2019-02-03T06:43:13.413Z,32.00
2019-02-03T06:44:17.793Z,30.07
2019-02-03T06:45:31.720Z,32.80
2019-02-03T06:46:45.675Z,31.00
2019-02-03T06:47:51.013Z,29.87
2019-02-03T06:48:58.010Z,31.03
2019-02-03T06:50:03.117Z,29.30
2019-02-03T06:51:12.508Z,30.63
2019-02-03T06:52:19.164Z,29.47
2019-02-03T06:53:23.807Z,28.40
2019-02-03T06:54:29.761Z,28.97
2019-02-03T06:55:34.192Z,27.57
2019-02-03T06:56:38.615Z,27.43
2019-02-03T06:57:43.252Z,26.33
2019-02-03T06:58:47.782Z,28.30
2019-02-03T06:59:54.757Z,26.77
2019-02-03T07:00:59.360Z,25.90
2019-02-03T07:02:04.039Z,25.93
2019-02-03T07:03:08.552Z,25.73
2019-02-03T07:04:14.797Z,24.57
2019-02-03T07:05:19.301Z,23.23
2019-02-03T07:06:24.047Z,22.13
2019-02-03T07:07:28.971Z,23.33
2019-02-03T07:08:33.531Z,22.67
2019-02-03T07:09:38.024Z,22.67
2019-02-03T07:10:44.757Z,23.17
2019-02-03T07:11:49.137Z,20.10
2019-02-03T07:12:53.795Z,21.77
2019-02-03T07:13:58.652Z,20.97
2019-02-03T07:15:03.119Z,21.17
2019-02-03T07:16:07.567Z,21.87
2019-02-03T07:17:12.229Z,21.53
2019-02-03T07:18:16.756Z,20.77
2019-02-03T07:19:21.184Z,19.43
2019-02-03T07:20:25.735Z,20.10
2019-02-03T07:21:30.260Z,19.47
2019-02-03T07:22:34.723Z,20.83
2019-02-03T07:23:40.429Z,19.57
2019-02-03T07:24:45.144Z,18.50
2019-02-03T07:25:49.836Z,19.73
2019-02-03T07:26:54.678Z,19.27
2019-02-03T07:27:59.040Z,18.50
2019-02-03T07:29:03.573Z,17.53
2019-02-03T07:30:10.285Z,17.97
2019-02-03T07:31:14.835Z,18.20
2019-02-03T07:32:19.286Z,18.93
2019-02-03T07:33:24.330Z,18.07
2019-02-03T07:34:28.802Z,18.37
2019-02-03T07:35:33.249Z,17.60
2019-02-03T07:36:37.762Z,17.73
2019-02-03T07:37:42.332Z,17.43
2019-02-03T07:38:46.799Z,17.47
2019-02-03T07:39:51.326Z,17.47
2019-02-03T07:40:55.870Z,15.27
2019-02-03T07:42:00.337Z,16.07
2019-02-03T07:43:04.842Z,16.10
2019-02-03T07:44:09.389Z,15.87
2019-02-03T07:45:14.414Z,15.67
2019-02-03T07:46:19.262Z,15.37
2019-02-03T07:47:23.942Z,15.23
2019-02-03T07:48:28.386Z,15.57
2019-02-03T07:49:32.911Z,14.83
2019-02-03T07:50:37.465Z,14.07
2019-02-03T07:51:41.841Z,14.37
2019-02-03T07:52:46.265Z,14.67
2019-02-03T07:53:51.051Z,15.33
2019-02-03T07:54:55.725Z,14.27
2019-02-03T07:56:00.203Z,14.53
2019-02-03T07:57:04.732Z,14.17
2019-02-03T07:58:12.180Z,13.27
2019-02-03T07:59:15.524Z,13.80
2019-02-03T08:00:20.009Z,14.10
2019-02-03T08:01:24.524Z,14.10
2019-02-03T08:02:29.051Z,12.47
2019-02-03T08:03:33.591Z,12.80
2019-02-03T08:04:38.357Z,12.93
2019-02-03T08:05:42.762Z,13.33
2019-02-03T08:06:47.288Z,13.13
2019-02-03T08:07:51.733Z,13.93
2019-02-03T08:08:56.416Z,11.80
2019-02-03T08:10:01.099Z,13.43
2019-02-03T08:11:05.455Z,11.87
2019-02-03T08:12:09.917Z,11.43
2019-02-03T08:13:14.443Z,11.80
2019-02-03T08:14:18.892Z,13.00
2019-02-03T08:15:23.573Z,12.03
2019-02-03T08:16:28.141Z,11.87
2019-02-03T08:17:32.641Z,11.33
2019-02-03T08:18:37.061Z,12.07
2019-02-03T08:19:41.602Z,12.60
2019-02-03T08:20:46.046Z,11.87
2019-02-03T08:21:50.600Z,11.77
2019-02-03T08:22:55.761Z,10.67
2019-02-03T08:24:00.281Z,11.10
2019-02-03T08:25:05.658Z,12.03
2019-02-03T08:26:10.163Z,10.97
2019-02-03T08:27:14.670Z,11.60
2019-02-03T08:28:19.274Z,12.63
2019-02-03T08:29:23.824Z,12.17
2019-02-03T08:30:28.487Z,11.20
2019-02-03T08:31:32.957Z,11.53
2019-02-03T08:32:37.346Z,12.10
2019-02-03T08:33:41.910Z,12.10
2019-02-03T08:34:46.525Z,11.57
2019-02-03T08:35:51.116Z,11.40
2019-02-03T08:36:55.648Z,11.37
2019-02-03T08:38:00.260Z,10.50
2019-02-03T08:39:07.855Z,10.50
2019-02-03T08:40:16.517Z,10.50
2019-02-03T08:41:20.902Z,10.43
2019-02-03T08:42:25.599Z,10.23
2019-02-03T08:43:30.273Z,9.83
2019-02-03T08:44:34.743Z,11.33
2019-02-03T08:45:39.273Z,9.30
2019-02-03T08:46:43.772Z,10.03
2019-02-03T08:47:48.249Z,8.97
2019-02-03T08:48:52.691Z,9.50
2019-02-03T08:49:57.193Z,9.30
2019-02-03T08:51:01.729Z,10.07
2019-02-03T08:52:07.977Z,8.80
2019-02-03T08:53:12.469Z,9.30
2019-02-03T08:54:17.037Z,8.67
2019-02-03T08:55:21.557Z,7.93
2019-02-03T08:56:26.064Z,8.63
2019-02-03T08:57:33.528Z,7.70
2019-02-03T08:58:37.992Z,8.50
2019-02-03T08:59:42.399Z,7.60
2019-02-03T09:00:46.776Z,7.80
2019-02-03T09:01:51.441Z,7.93
2019-02-03T09:02:56.413Z,7.73
2019-02-03T09:04:00.840Z,7.77
2019-02-03T09:05:06.746Z,7.47
2019-02-03T09:06:11.171Z,7.67
2019-02-03T09:07:15.601Z,8.20
2019-02-03T09:08:20.031Z,7.57
2019-02-03T09:09:24.537Z,7.57
2019-02-03T09:10:28.967Z,7.37
2019-02-03T09:11:33.427Z,7.67
2019-02-03T09:12:37.827Z,6.47
2019-02-03T09:13:42.278Z,7.13
2019-02-03T09:14:46.694Z,7.17
2019-02-03T09:15:51.969Z,7.10
2019-02-03T09:16:56.593Z,7.07
2019-02-03T09:18:01.066Z,7.13
2019-02-03T09:19:05.492Z,6.43
2019-02-03T09:20:15.709Z,6.50
2019-02-03T09:21:20.129Z,7.47
2019-02-03T09:22:24.767Z,7.27
2019-02-03T09:23:29.609Z,6.73
2019-02-03T09:24:34.082Z,7.03
2019-02-03T09:25:38.472Z,7.33
2019-02-03T09:26:42.972Z,7.07
2019-02-03T09:27:47.543Z,6.77
2019-02-03T09:28:51.981Z,6.60
2019-02-03T09:29:56.790Z,7.07
2019-02-03T09:31:01.356Z,7.83
2019-02-03T09:32:06.105Z,7.57
2019-02-03T09:33:10.618Z,6.57
2019-02-03T09:34:15.141Z,7.00
2019-02-03T09:35:19.540Z,7.50
2019-02-03T09:36:23.951Z,6.53
2019-02-03T09:37:29.666Z,6.43
2019-02-03T09:38:34.322Z,7.07
2019-02-03T09:39:38.790Z,6.57
2019-02-03T09:40:43.273Z,6.77
2019-02-03T09:41:48.086Z,7.40
2019-02-03T09:42:52.683Z,7.20
2019-02-03T09:43:57.528Z,6.07
2019-02-03T09:45:02.000Z,6.57
2019-02-03T09:46:06.859Z,6.57
2019-02-03T09:47:11.316Z,7.10
2019-02-03T09:48:15.849Z,6.80
2019-02-03T09:49:20.297Z,6.80
2019-02-03T09:50:26.389Z,6.83
2019-02-03T09:51:30.851Z,6.83
2019-02-03T09:52:35.347Z,6.70
2019-02-03T09:53:39.847Z,6.57
2019-02-03T09:54:44.342Z,6.60
2019-02-03T09:55:48.864Z,6.87
2019-02-03T09:56:53.444Z,6.20
2019-02-03T09:58:01.404Z,6.70
2019-02-03T09:59:06.123Z,7.03
2019-02-03T10:00:17.112Z,6.57
2019-02-03T10:01:21.558Z,6.27
2019-02-03T10:02:26.311Z,6.40
2019-02-03T10:03:31.055Z,6.40
2019-02-03T10:04:35.472Z,6.60
2019-02-03T10:05:40.009Z,6.70
2019-02-03T10:06:44.480Z,6.40
2019-02-03T10:07:49.004Z,7.27
2019-02-03T10:08:53.507Z,6.03
2019-02-03T10:09:58.510Z,6.70
2019-02-03T10:11:11.678Z,6.33
2019-02-03T10:12:09.683Z,6.10
2019-02-03T10:13:14.336Z,6.97
2019-02-03T10:14:18.832Z,6.10
2019-02-03T10:15:23.457Z,6.37
2019-02-03T10:16:27.996Z,6.50
2019-02-03T10:17:32.389Z,6.60
2019-02-03T10:18:36.814Z,6.20
2019-02-03T10:19:41.327Z,5.47
2019-02-03T10:20:45.780Z,5.50
2019-02-03T10:21:50.694Z,6.73
2019-02-03T10:22:55.270Z,6.60
2019-02-03T10:23:59.785Z,6.27
2019-02-03T10:25:05.304Z,5.63
2019-02-03T10:26:10.218Z,5.83
2019-02-03T10:27:14.927Z,5.10
2019-02-03T10:28:19.353Z,5.67
2019-02-03T10:29:23.881Z,5.47
2019-02-03T10:30:28.618Z,6.00
2019-02-03T10:31:33.165Z,5.17
2019-02-03T10:32:37.688Z,5.47
2019-02-03T10:33:42.055Z,6.30
2019-02-03T10:34:46.541Z,5.27
2019-02-03T10:35:50.976Z,5.47
2019-02-03T10:36:55.640Z,6.50
2019-02-03T10:38:00.316Z,5.37
2019-02-03T10:39:08.306Z,6.00
2019-02-03T10:40:16.198Z,5.53
2019-02-03T10:41:24.015Z,5.63
2019-02-03T10:42:26.902Z,4.57
2019-02-03T10:43:31.708Z,5.73
2019-02-03T10:44:36.343Z,5.13
2019-02-03T10:45:40.833Z,5.30
2019-02-03T10:46:45.240Z,4.77
2019-02-03T10:47:49.754Z,5.43
2019-02-03T10:48:54.390Z,5.23
2019-02-03T10:50:01.395Z,5.20
2019-02-03T10:51:05.559Z,5.20
2019-02-03T10:52:10.195Z,5.03
2019-02-03T10:53:14.873Z,5.50
2019-02-03T10:54:19.331Z,4.67
2019-02-03T10:55:23.830Z,5.30
2019-02-03T10:56:28.384Z,5.73
2019-02-03T10:57:32.960Z,5.23
2019-02-03T10:58:37.465Z,4.80
2019-02-03T10:59:41.996Z,5.30
2019-02-03T11:00:46.862Z,4.93
2019-02-03T11:01:51.304Z,4.97
2019-02-03T11:02:55.884Z,5.10
2019-02-03T11:04:01.955Z,4.63
2019-02-03T11:05:09.094Z,5.37
2019-02-03T11:06:13.626Z,5.47
2019-02-03T11:07:18.249Z,4.80
2019-02-03T11:08:22.688Z,5.00
2019-02-03T11:09:27.269Z,4.93
2019-02-03T11:10:31.850Z,4.43
2019-02-03T11:11:37.084Z,4.30
2019-02-03T11:12:41.644Z,4.87
2019-02-03T11:13:46.318Z,4.37
2019-02-03T11:14:51.857Z,4.27
2019-02-03T11:15:56.490Z,4.27
2019-02-03T11:17:00.932Z,4.77
2019-02-03T11:18:05.914Z,4.47
2019-02-03T11:19:10.935Z,4.63
2019-02-03T11:20:23.814Z,4.27
2019-02-03T11:21:28.631Z,3.97
2019-02-03T11:22:33.197Z,4.27
2019-02-03T11:23:37.814Z,4.80
2019-02-03T11:24:42.873Z,4.63
2019-02-03T11:25:47.265Z,4.70
2019-02-03T11:26:51.854Z,4.17
2019-02-03T11:27:59.133Z,3.97
2019-02-03T11:29:03.693Z,3.87
2019-02-03T11:30:14.879Z,4.30
2019-02-03T11:31:19.392Z,4.03
2019-02-03T11:32:24.036Z,4.40
2019-02-03T11:33:28.621Z,3.80
2019-02-03T11:34:33.120Z,4.10
2019-02-03T11:35:37.792Z,3.77
2019-02-03T11:36:42.438Z,4.00
2019-02-03T11:37:46.909Z,5.07
2019-02-03T11:38:51.554Z,5.07
2019-02-03T11:39:56.372Z,4.07
2019-02-03T11:41:00.872Z,4.83
2019-02-03T11:42:05.349Z,4.10
2019-02-03T11:43:09.848Z,4.00
2019-02-03T11:44:14.341Z,3.63
2019-02-03T11:45:22.016Z,4.20
2019-02-03T11:46:26.532Z,3.30
2019-02-03T11:47:30.948Z,3.87
2019-02-03T11:48:35.436Z,3.70
2019-02-03T11:49:39.891Z,3.80
2019-02-03T11:50:44.658Z,4.33
2019-02-03T11:51:49.143Z,4.07
2019-02-03T11:52:53.605Z,4.10
2019-02-03T11:53:58.298Z,4.37
2019-02-03T11:55:02.917Z,3.70
2019-02-03T11:56:07.517Z,3.97
2019-02-03T11:57:12.154Z,3.77
2019-02-03T11:58:16.624Z,3.60
2019-02-03T11:59:21.480Z,3.47
2019-02-03T12:00:27.484Z,4.23
2019-02-03T12:01:32.030Z,3.80
2019-02-03T12:02:41.861Z,4.57
2019-02-03T12:03:42.569Z,3.70
2019-02-03T12:04:47.062Z,3.77
2019-02-03T12:05:51.547Z,3.80
2019-02-03T12:06:55.983Z,3.57
2019-02-03T12:08:02.162Z,3.93
2019-02-03T12:09:09.064Z,3.27
2019-02-03T12:10:17.573Z,4.03
2019-02-03T12:11:21.984Z,3.93
2019-02-03T12:12:26.396Z,3.83
2019-02-03T12:13:30.874Z,4.33
2019-02-03T12:14:35.340Z,4.27
2019-02-03T12:15:39.939Z,4.00
2019-02-03T12:16:44.388Z,3.90
2019-02-03T12:17:49.181Z,4.07
2019-02-03T12:18:53.574Z,4.10
2019-02-03T12:19:58.037Z,3.67
2019-02-03T12:21:03.146Z,3.60
2019-02-03T12:22:07.895Z,3.87
2019-02-03T12:23:12.544Z,3.93
2019-02-03T12:24:16.963Z,4.33
2019-02-03T12:25:26.803Z,4.63
2019-02-03T12:26:31.286Z,4.33
2019-02-03T12:27:35.679Z,4.10
2019-02-03T12:28:40.076Z,4.33
2019-02-03T12:29:44.518Z,4.53
2019-02-03T12:30:49.119Z,4.27
2019-02-03T12:31:53.615Z,4.67
2019-02-03T12:32:58.335Z,4.40
2019-02-03T12:34:02.966Z,4.90
2019-02-03T12:35:09.497Z,5.13
2019-02-03T12:36:14.170Z,4.43
2019-02-03T12:37:18.744Z,5.10
2019-02-03T12:38:23.236Z,4.63
2019-02-03T12:39:27.902Z,4.47
2019-02-03T12:40:33.175Z,4.63
2019-02-03T12:41:37.518Z,4.03
2019-02-03T12:42:42.084Z,4.23
2019-02-03T12:43:46.810Z,4.33
2019-02-03T12:44:51.242Z,3.80
2019-02-03T12:45:55.684Z,3.50
2019-02-03T12:47:00.114Z,4.07
2019-02-03T12:48:06.067Z,5.20
2019-02-03T12:49:10.609Z,4.17
2019-02-03T12:50:16.459Z,3.53
2019-02-03T12:51:20.892Z,4.90
2019-02-03T12:52:25.348Z,3.63
2019-02-03T12:53:29.771Z,4.23
2019-02-03T12:54:34.205Z,3.90
2019-02-03T12:55:38.734Z,4.47
2019-02-03T12:56:43.380Z,4.73
2019-02-03T12:57:48.071Z,4.23
2019-02-03T12:58:52.672Z,3.70
2019-02-03T12:59:57.158Z,4.03
2019-02-03T13:01:01.794Z,4.20
2019-02-03T13:02:06.788Z,3.30
2019-02-03T13:03:11.355Z,3.83
2019-02-03T13:04:15.947Z,3.90
2019-02-03T13:05:21.678Z,3.77
2019-02-03T13:06:26.173Z,3.63
2019-02-03T13:07:30.870Z,3.30
2019-02-03T13:08:35.466Z,3.50
2019-02-03T13:09:39.963Z,4.10
2019-02-03T13:10:44.506Z,4.40
2019-02-03T13:11:49.074Z,3.20
2019-02-03T13:12:53.724Z,3.70
2019-02-03T13:13:58.274Z,3.73
2019-02-03T13:15:02.749Z,4.33
2019-02-03T13:16:07.364Z,3.90
2019-02-03T13:17:12.065Z,3.10
2019-02-03T13:18:16.556Z,3.27
2019-02-03T13:19:21.171Z,3.83
2019-02-03T13:20:26.876Z,3.43
2019-02-03T13:21:31.695Z,3.70
2019-02-03T13:22:36.524Z,3.70
2019-02-03T13:23:44.884Z,4.10
2019-02-03T13:24:47.835Z,3.73
2019-02-03T13:25:52.388Z,3.60
2019-02-03T13:26:56.947Z,3.20
2019-02-03T13:28:01.885Z,3.80
2019-02-03T13:29:25.509Z,3.90
2019-02-03T13:30:32.343Z,3.33
2019-02-03T13:31:36.925Z,4.33
2019-02-03T13:32:41.511Z,3.90
2019-02-03T13:33:48.683Z,4.07
2019-02-03T13:34:54.059Z,3.73
2019-02-03T13:35:58.605Z,3.87
2019-02-03T13:37:03.502Z,3.80
2019-02-03T13:38:08.729Z,3.80
2019-02-03T13:39:16.639Z,3.20
2019-02-03T13:40:24.086Z,4.10
2019-02-03T13:41:30.310Z,3.63
2019-02-03T13:42:37.299Z,3.97
2019-02-03T13:43:41.013Z,3.83
2019-02-03T13:44:45.633Z,3.73
2019-02-03T13:45:50.534Z,3.90
2019-02-03T13:46:55.111Z,3.80
2019-02-03T13:47:59.821Z,4.10
2019-02-03T13:49:04.423Z,3.90
2019-02-03T13:50:10.734Z,3.97
2019-02-03T13:51:15.225Z,3.37
2019-02-03T13:52:21.577Z,3.40
2019-02-03T13:53:26.184Z,3.43
2019-02-03T13:54:31.875Z,3.33
2019-02-03T13:55:36.763Z,3.73
2019-02-03T13:56:41.295Z,3.40
2019-02-03T13:57:45.766Z,3.37
2019-02-03T13:58:50.220Z,3.63
2019-02-03T13:59:54.797Z,3.70
2019-02-03T14:00:59.581Z,3.40
2019-02-03T14:02:07.989Z,3.40
2019-02-03T14:03:12.980Z,3.27
2019-02-03T14:04:17.760Z,3.13
2019-02-03T14:05:22.400Z,3.93
2019-02-03T14:06:27.122Z,3.17
2019-02-03T14:07:31.885Z,3.27